Time;durP1;ratioP1;P1;durP2;ratioP2;P2;SDS_P1;SDS_P2;PMS_P1;PMS_P2;Temp;Humidity;BMP_temperature;BMP_pressure;BME280_temperature;BME280_humidity;BME280_pressure;Samples;Min_cycle;Max_cycle;Signal;HPM_P1;HPM_P2
2021/06/12 00:02:25;;;;;;;11.18;6.22;;;17.70;99.90;;;;;;5040250;28;20036;-62
2021/06/12 00:04:51;;;;;;;19.70;7.57;;;17.80;99.90;;;;;;5044790;28;20033;-64
2021/06/12 00:07:17;;;;;;;15.98;6.63;;;17.80;99.90;;;;;;5044084;28;20039;-63
2021/06/12 00:09:42;;;;;;;13.25;6.50;;;17.80;99.90;;;;;;5047270;28;20036;-63
2021/06/12 00:12:09;;;;;;;12.48;6.97;;;17.90;99.90;;;;;;5045553;28;20444;-63
2021/06/12 00:14:35;;;;;;;12.52;6.30;;;17.80;99.90;;;;;;5028952;28;20029;-63
2021/06/12 00:17:00;;;;;;;14.68;6.55;;;17.70;99.90;;;;;;5047486;28;20579;-63
2021/06/12 00:19:27;;;;;;;13.30;5.60;;;17.80;99.90;;;;;;5043186;28;20049;-62
2021/06/12 00:21:52;;;;;;;15.98;6.00;;;17.80;99.90;;;;;;5047990;28;20029;-63
2021/06/12 00:24:18;;;;;;;12.40;5.38;;;18.00;99.90;;;;;;5039086;28;20028;-62
2021/06/12 00:26:43;;;;;;;12.10;6.03;;;18.00;99.90;;;;;;5043478;28;20026;-63
2021/06/12 00:29:10;;;;;;;16.60;6.22;;;18.10;99.90;;;;;;5047482;28;20009;-63
2021/06/12 00:31:35;;;;;;;12.15;6.50;;;17.90;99.90;;;;;;5045519;28;20033;-62
2021/06/12 00:34:01;;;;;;;9.90;6.53;;;17.70;99.90;;;;;;5045250;28;20040;-64
2021/06/12 00:36:27;;;;;;;15.95;5.53;;;17.80;99.90;;;;;;5047603;28;20024;-63
2021/06/12 00:38:52;;;;;;;11.02;6.00;;;17.80;99.90;;;;;;5031379;28;20060;-63
2021/06/12 00:41:19;;;;;;;9.85;5.25;;;18.00;99.90;;;;;;5037549;28;20017;-63
2021/06/12 00:43:45;;;;;;;11.57;5.70;;;17.90;99.90;;;;;;5037180;28;20041;-63
2021/06/12 00:46:11;;;;;;;14.32;5.63;;;17.90;99.90;;;;;;5041052;28;20029;-63
2021/06/12 00:48:38;;;;;;;14.25;5.97;;;18.00;99.90;;;;;;5034057;28;20014;-63
2021/06/12 00:51:04;;;;;;;11.18;6.18;;;18.00;99.90;;;;;;5045366;28;20511;-63
2021/06/12 00:53:40;;;;;;;14.15;5.90;;;17.90;99.90;;;;;;5031147;28;20480;-63
2021/06/12 00:56:26;;;;;;;12.85;5.57;;;18.00;99.90;;;;;;5043158;28;20031;-63
2021/06/12 00:58:53;;;;;;;10.63;5.82;;;18.00;99.90;;;;;;5049936;28;20041;-64
2021/06/12 01:01:21;;;;;;;9.95;6.38;;;18.00;99.90;;;;;;5042569;28;20079;-63
2021/06/12 01:03:48;;;;;;;11.00;6.10;;;17.90;99.90;;;;;;5035425;28;20034;-63
2021/06/12 01:06:15;;;;;;;15.23;6.88;;;18.00;99.90;;;;;;5045383;28;20020;-63
2021/06/12 01:08:42;;;;;;;13.25;6.05;;;17.80;99.90;;;;;;5047448;28;20094;-64
2021/06/12 01:11:08;;;;;;;20.67;6.97;;;17.80;99.90;;;;;;5046891;28;20610;-62
2021/06/12 01:13:58;;;;;;;11.68;6.63;;;17.80;99.90;;;;;;5045495;28;20666;-62
2021/06/12 01:16:40;;;;;;;17.60;8.00;;;17.70;99.90;;;;;;5042573;28;20017;-63
2021/06/12 01:19:41;;;;;;;17.03;6.90;;;17.80;99.90;;;;;;5050093;28;20039;-64
2021/06/12 01:22:22;;;;;;;12.15;6.35;;;17.80;99.90;;;;;;5043365;28;20767;-63
2021/06/12 01:25:04;;;;;;;13.82;7.05;;;17.90;99.90;;;;;;5046864;28;20025;-64
2021/06/12 01:28:00;;;;;;;10.70;6.28;;;17.80;99.90;;;;;;5046297;28;20478;-63
2021/06/12 01:30:34;;;;;;;12.52;7.20;;;17.80;99.90;;;;;;5041721;28;20058;-63
2021/06/12 01:33:06;;;;;;;13.48;6.88;;;17.90;99.90;;;;;;5035348;28;20040;-62
2021/06/12 01:35:39;;;;;;;11.63;6.63;;;17.80;99.90;;;;;;5039172;28;20112;-63
2021/06/12 01:38:06;;;;;;;13.20;7.43;;;17.80;99.90;;;;;;5025283;28;20044;-63
2021/06/12 01:40:36;;;;;;;16.77;7.70;;;17.70;99.90;;;;;;5039524;28;20036;-63
2021/06/12 01:43:03;;;;;;;14.65;7.78;;;17.80;99.90;;;;;;5043622;28;20108;-63
2021/06/12 01:45:30;;;;;;;13.70;7.93;;;17.80;99.90;;;;;;5045879;28;20021;-63
2021/06/12 01:47:56;;;;;;;16.50;7.38;;;17.70;99.90;;;;;;5036165;28;20024;-64
2021/06/12 01:50:24;;;;;;;15.27;7.57;;;17.70;99.90;;;;;;5046176;28;20395;-62
2021/06/12 01:52:50;;;;;;;14.70;8.02;;;17.70;99.90;;;;;;5045811;28;20104;-63
2021/06/12 01:55:19;;;;;;;14.63;8.20;;;17.60;99.90;;;;;;5046304;28;20550;-62
2021/06/12 01:57:46;;;;;;;15.25;9.35;;;17.70;99.90;;;;;;5046902;28;20032;-64
2021/06/12 02:00:13;;;;;;;14.35;8.35;;;17.70;99.90;;;;;;5034519;28;20024;-65
2021/06/12 02:02:43;;;;;;;15.23;8.93;;;17.70;99.90;;;;;;5046670;28;20121;-64
2021/06/12 02:05:13;;;;;;;16.05;8.45;;;17.50;99.90;;;;;;5045824;28;20064;-62
2021/06/12 02:07:40;;;;;;;14.38;8.98;;;17.60;99.90;;;;;;5031164;28;20071;-63
2021/06/12 02:10:07;;;;;;;19.83;9.27;;;17.60;99.90;;;;;;5034033;28;20043;-64
2021/06/12 02:12:34;;;;;;;14.50;9.38;;;17.60;99.90;;;;;;5040627;28;20040;-63
2021/06/12 02:15:01;;;;;;;19.30;9.43;;;17.60;99.90;;;;;;5034553;28;20151;-63
2021/06/12 02:17:29;;;;;;;18.33;10.77;;;17.70;99.90;;;;;;5046143;28;20029;-61
2021/06/12 02:19:55;;;;;;;17.65;8.95;;;17.60;99.90;;;;;;5044990;28;20682;-61
2021/06/12 02:22:21;;;;;;;16.27;9.63;;;17.60;99.90;;;;;;5046149;28;20032;-64
2021/06/12 02:24:48;;;;;;;17.35;9.02;;;17.70;99.90;;;;;;5037234;28;20034;-64
2021/06/12 02:27:17;;;;;;;16.40;10.52;;;17.70;99.90;;;;;;5047204;28;20020;-63
2021/06/12 02:29:43;;;;;;;24.75;10.77;;;17.60;99.90;;;;;;5050715;28;20116;-61
2021/06/12 02:32:11;;;;;;;18.73;10.35;;;17.70;99.90;;;;;;5047739;28;20377;-62
2021/06/12 02:34:37;;;;;;;21.20;10.32;;;17.80;99.90;;;;;;5049812;28;20070;-63
2021/06/12 02:37:05;;;;;;;22.08;10.32;;;17.60;99.90;;;;;;5050651;28;20108;-63
2021/06/12 02:39:31;;;;;;;20.15;11.50;;;17.60;99.90;;;;;;5049422;28;20025;-62
2021/06/12 02:41:57;;;;;;;21.92;11.10;;;17.70;99.90;;;;;;5050203;28;20087;-64
2021/06/12 02:44:22;;;;;;;25.50;13.50;;;17.60;99.90;;;;;;5039411;28;20274;-63
2021/06/12 02:46:48;;;;;;;21.85;12.15;;;17.50;99.90;;;;;;5051557;28;20024;-62
2021/06/12 02:49:18;;;;;;;22.42;11.18;;;17.40;99.90;;;;;;5047068;28;20138;-63
2021/06/12 02:51:48;;;;;;;25.40;12.25;;;17.40;99.90;;;;;;5033241;28;20052;-64
2021/06/12 02:54:15;;;;;;;27.08;10.75;;;17.50;99.90;;;;;;5045280;28;20171;-64
2021/06/12 02:56:43;;;;;;;22.95;12.60;;;17.50;99.90;;;;;;5049583;28;20052;-62
2021/06/12 02:59:16;;;;;;;27.85;11.85;;;17.50;99.90;;;;;;5047230;28;20021;-64
2021/06/12 03:01:42;;;;;;;20.50;11.52;;;17.50;99.90;;;;;;5038190;28;20116;-63
2021/06/12 03:04:11;;;;;;;21.52;12.93;;;17.50;99.90;;;;;;5038442;28;20069;-62
2021/06/12 03:06:38;;;;;;;23.17;12.95;;;17.60;99.90;;;;;;5043955;28;20104;-62
2021/06/12 03:09:04;;;;;;;28.35;12.15;;;17.70;99.90;;;;;;5048952;28;20112;-62
2021/06/12 03:11:33;;;;;;;26.48;12.00;;;17.60;99.90;;;;;;5040473;28;20029;-63
2021/06/12 03:14:01;;;;;;;24.77;13.80;;;17.50;99.90;;;;;;5042398;28;20025;-62
2021/06/12 03:16:28;;;;;;;21.52;12.70;;;17.50;99.90;;;;;;5049145;28;20029;-63
2021/06/12 03:18:54;;;;;;;22.65;12.43;;;17.60;99.90;;;;;;5049403;28;20477;-64
2021/06/12 03:21:23;;;;;;;20.90;12.70;;;17.70;99.90;;;;;;5052615;28;20021;-63
2021/06/12 03:23:51;;;;;;;26.80;12.65;;;17.60;99.90;;;;;;5045264;28;20043;-63
2021/06/12 03:26:18;;;;;;;29.77;13.65;;;17.60;99.90;;;;;;5035788;28;20029;-64
2021/06/12 03:28:43;;;;;;;23.83;12.55;;;17.60;99.90;;;;;;5035230;28;20113;-63
2021/06/12 03:31:10;;;;;;;28.48;14.82;;;17.50;99.90;;;;;;5036977;28;20100;-63
2021/06/12 03:33:36;;;;;;;26.38;14.27;;;17.40;99.90;;;;;;5043529;28;20033;-64
2021/06/12 03:36:02;;;;;;;37.13;14.60;;;17.50;99.90;;;;;;5043942;28;20048;-63
2021/06/12 03:38:29;;;;;;;27.27;14.10;;;17.50;99.90;;;;;;5048021;28;20080;-62
2021/06/12 03:40:56;;;;;;;28.95;13.82;;;17.40;99.90;;;;;;5046126;28;20025;-64
2021/06/12 03:43:24;;;;;;;25.15;14.43;;;17.50;99.90;;;;;;5039822;28;20065;-64
2021/06/12 03:45:54;;;;;;;27.15;14.25;;;17.50;99.90;;;;;;5038583;28;20036;-64
2021/06/12 03:48:21;;;;;;;27.23;13.45;;;17.60;99.90;;;;;;5037091;28;20029;-64
2021/06/12 03:50:49;;;;;;;22.83;14.38;;;17.60;99.90;;;;;;5036045;28;20492;-64
2021/06/12 03:53:15;;;;;;;26.98;13.93;;;17.50;99.90;;;;;;5042340;28;20025;-62
2021/06/12 03:55:40;;;;;;;28.20;14.60;;;17.50;99.90;;;;;;5042429;28;20025;-63
2021/06/12 03:58:06;;;;;;;26.17;15.70;;;17.60;99.90;;;;;;5048304;28;20024;-62
2021/06/12 04:00:32;;;;;;;21.77;14.00;;;17.50;99.90;;;;;;5047341;28;20558;-64
2021/06/12 04:02:58;;;;;;;28.88;14.90;;;17.60;99.90;;;;;;5044758;28;20507;-64
2021/06/12 04:05:23;;;;;;;24.45;14.48;;;17.70;99.90;;;;;;5041383;28;20423;-63
2021/06/12 04:07:49;;;;;;;26.08;13.85;;;17.70;99.90;;;;;;5043005;28;20445;-63
2021/06/12 04:10:15;;;;;;;38.33;15.68;;;17.70;99.90;;;;;;5045230;28;20073;-62
2021/06/12 04:12:41;;;;;;;32.80;15.85;;;17.60;99.90;;;;;;5048088;28;20021;-65
2021/06/12 04:15:07;;;;;;;32.10;15.07;;;17.60;99.90;;;;;;5048247;28;20017;-63
2021/06/12 04:17:33;;;;;;;25.00;14.13;;;17.50;99.90;;;;;;5043008;28;20033;-64
2021/06/12 04:19:59;;;;;;;28.38;14.90;;;17.60;99.90;;;;;;5046396;28;20475;-63
2021/06/12 04:22:25;;;;;;;30.08;14.82;;;17.60;99.90;;;;;;5043178;28;20032;-63
2021/06/12 04:24:51;;;;;;;31.27;15.55;;;17.60;99.90;;;;;;5046571;28;20670;-62
2021/06/12 04:27:16;;;;;;;29.60;15.50;;;17.60;99.90;;;;;;5046934;28;20025;-62
2021/06/12 04:29:42;;;;;;;36.92;16.38;;;17.30;99.90;;;;;;5047374;28;20071;-63
2021/06/12 04:32:08;;;;;;;22.92;14.05;;;17.20;99.90;;;;;;5047349;28;20036;-64
2021/06/12 04:34:33;;;;;;;23.67;13.65;;;17.30;99.90;;;;;;5020559;28;20021;-63
2021/06/12 04:37:02;;;;;;;19.88;12.35;;;17.30;99.90;;;;;;5042170;28;20642;-63
2021/06/12 04:39:27;;;;;;;20.27;11.80;;;17.30;99.90;;;;;;5044885;28;20561;-63
2021/06/12 04:41:53;;;;;;;23.15;11.57;;;17.30;99.90;;;;;;5036090;28;20029;-63
2021/06/12 04:44:18;;;;;;;22.95;12.02;;;17.30;99.90;;;;;;5031814;28;20095;-62
2021/06/12 04:46:44;;;;;;;19.02;11.95;;;17.50;99.90;;;;;;5035204;28;20104;-62
2021/06/12 04:49:10;;;;;;;19.20;11.27;;;17.50;99.90;;;;;;5019849;28;20076;-64
2021/06/12 04:51:36;;;;;;;18.42;10.32;;;17.30;99.90;;;;;;5044629;28;20025;-63
2021/06/12 04:54:03;;;;;;;16.80;10.23;;;17.30;99.90;;;;;;5039733;28;20233;-63
2021/06/12 04:56:29;;;;;;;17.05;10.27;;;17.40;99.90;;;;;;5042155;28;20029;-63
2021/06/12 04:58:54;;;;;;;18.95;10.80;;;17.50;99.90;;;;;;5043238;28;20453;-64
2021/06/12 05:01:20;;;;;;;21.42;9.57;;;17.50;99.90;;;;;;5038249;28;20406;-63
2021/06/12 05:03:45;;;;;;;15.50;9.07;;;17.60;99.90;;;;;;5038546;28;20057;-63
2021/06/12 05:06:11;;;;;;;17.77;9.13;;;17.60;99.90;;;;;;5040938;28;20056;-64
2021/06/12 05:11:11;;;;;;;21.15;10.07;;;17.40;99.90;;;;;;5050788;28;20114;-64
2021/06/12 05:13:38;;;;;;;17.52;9.20;;;17.50;99.90;;;;;;5029807;28;20033;-66
2021/06/12 05:16:04;;;;;;;16.02;8.77;;;17.40;99.90;;;;;;5055249;28;20449;-64
2021/06/12 05:18:44;;;;;;;18.35;9.02;;;17.50;99.90;;;;;;5066427;28;20450;-64
2021/06/12 05:21:14;;;;;;;18.20;9.13;;;17.60;99.90;;;;;;5027108;28;20602;-64
2021/06/12 05:23:40;;;;;;;18.40;9.57;;;17.60;99.90;;;;;;5050017;28;20086;-65
2021/06/12 05:26:07;;;;;;;15.77;8.60;;;17.50;99.90;;;;;;5046549;28;20176;-64
2021/06/12 05:28:33;;;;;;;17.90;8.82;;;17.40;99.90;;;;;;5049259;28;20120;-63
2021/06/12 05:30:58;;;;;;;13.43;7.95;;;17.40;99.90;;;;;;5061077;28;20163;-64
2021/06/12 05:33:24;;;;;;;16.85;8.45;;;17.40;99.90;;;;;;5037551;28;20471;-65
2021/06/12 05:35:51;;;;;;;14.50;7.88;;;17.40;99.90;;;;;;5041450;28;20028;-64
2021/06/12 05:38:17;;;;;;;11.73;7.35;;;17.60;99.90;;;;;;5038814;28;20422;-64
2021/06/12 05:40:44;;;;;;;14.20;7.10;;;17.60;99.90;;;;;;5038472;28;20230;-65
2021/06/12 05:43:10;;;;;;;18.38;6.57;;;17.50;99.90;;;;;;5040334;28;20394;-65
2021/06/12 05:45:36;;;;;;;14.18;7.13;;;17.60;99.90;;;;;;5037405;28;20033;-64
2021/06/12 05:48:02;;;;;;;15.43;7.18;;;17.80;99.90;;;;;;5045370;28;20030;-64
2021/06/12 05:50:27;;;;;;;15.15;6.63;;;17.70;99.90;;;;;;5033586;28;20070;-65
2021/06/12 05:52:53;;;;;;;19.88;6.53;;;17.90;99.90;;;;;;5031437;28;20025;-64
2021/06/12 05:55:19;;;;;;;10.15;5.93;;;18.10;99.90;;;;;;5029077;28;20451;-65
2021/06/12 05:57:44;;;;;;;10.43;5.70;;;18.30;99.90;;;;;;5032878;28;20032;-65
2021/06/12 06:00:11;;;;;;;12.50;6.13;;;18.40;99.90;;;;;;5019527;28;20044;-64
2021/06/12 06:02:36;;;;;;;16.80;5.03;;;18.30;99.90;;;;;;5010909;28;20122;-64
2021/06/12 06:05:02;;;;;;;16.98;5.57;;;18.20;99.90;;;;;;5038022;28;20084;-64
2021/06/12 06:07:28;;;;;;;12.48;6.13;;;18.10;99.90;;;;;;5038612;28;20029;-66
2021/06/12 06:09:53;;;;;;;11.10;4.55;;;18.10;99.90;;;;;;5042705;28;20026;-65
2021/06/12 06:12:19;;;;;;;11.13;4.68;;;18.10;99.90;;;;;;5038948;28;20026;-66
2021/06/12 06:14:44;;;;;;;8.55;4.10;;;18.30;99.90;;;;;;5037879;28;20035;-64
2021/06/12 06:17:10;;;;;;;11.05;3.70;;;18.60;99.90;;;;;;5037988;28;20564;-65
2021/06/12 06:19:35;;;;;;;10.05;3.67;;;18.80;99.90;;;;;;5040108;28;20542;-64
2021/06/12 06:22:03;;;;;;;7.20;3.45;;;19.00;99.90;;;;;;5043073;28;20223;-65
2021/06/12 06:24:29;;;;;;;11.05;4.25;;;18.70;99.90;;;;;;5042088;28;20040;-65
2021/06/12 06:26:54;;;;;;;6.80;3.90;;;18.90;99.90;;;;;;5019851;28;20021;-66
2021/06/12 06:29:20;;;;;;;7.75;3.40;;;19.10;99.90;;;;;;5035256;28;20040;-64
2021/06/12 06:31:46;;;;;;;11.07;3.45;;;19.30;99.90;;;;;;5029536;28;20284;-64
2021/06/12 06:34:13;;;;;;;7.05;3.75;;;19.00;99.90;;;;;;5032341;28;20017;-64
2021/06/12 06:36:39;;;;;;;6.65;3.33;;;19.00;99.90;;;;;;5043977;28;20029;-65
2021/06/12 06:39:05;;;;;;;4.38;2.65;;;19.10;99.90;;;;;;5029483;28;20565;-65
2021/06/12 06:41:32;;;;;;;8.70;3.38;;;19.20;99.90;;;;;;5028366;28;20034;-64
2021/06/12 06:43:58;;;;;;;8.13;3.22;;;19.20;99.90;;;;;;5035442;28;20116;-65
2021/06/12 06:46:24;;;;;;;7.57;3.22;;;19.00;99.90;;;;;;5052789;28;20052;-64
2021/06/12 06:48:49;;;;;;;8.10;3.00;;;19.00;99.90;;;;;;5047409;28;20449;-65
2021/06/12 06:51:15;;;;;;;11.88;4.15;;;19.20;99.90;;;;;;5028111;28;20115;-64
2021/06/12 06:53:41;;;;;;;3.70;2.35;;;19.10;99.90;;;;;;5047134;28;20163;-64
2021/06/12 06:56:07;;;;;;;3.50;2.60;;;19.30;99.90;;;;;;5027874;28;20095;-64
2021/06/12 06:58:33;;;;;;;6.55;2.85;;;19.40;99.90;;;;;;5030031;28;20383;-67
2021/06/12 07:00:59;;;;;;;4.70;3.20;;;19.50;99.90;;;;;;5032428;28;20040;-63
2021/06/12 07:03:25;;;;;;;10.82;3.78;;;19.40;99.90;;;;;;5032567;28;20021;-66
2021/06/12 07:05:52;;;;;;;8.82;3.10;;;19.30;99.90;;;;;;5041788;28;20517;-63
2021/06/12 07:08:18;;;;;;;7.28;3.20;;;19.30;99.90;;;;;;5029665;28;20044;-65
2021/06/12 07:10:44;;;;;;;7.85;3.25;;;19.10;99.90;;;;;;5032536;28;20621;-66
2021/06/12 07:13:09;;;;;;;7.30;3.28;;;19.40;99.90;;;;;;5036144;28;20033;-65
2021/06/12 07:15:35;;;;;;;12.48;3.67;;;19.40;99.90;;;;;;5043099;28;20049;-66
2021/06/12 07:18:01;;;;;;;11.20;3.72;;;19.10;99.90;;;;;;5036352;28;20017;-64
2021/06/12 07:20:27;;;;;;;5.05;2.20;;;19.20;99.90;;;;;;5042962;28;20029;-64
2021/06/12 07:22:54;;;;;;;6.90;2.75;;;18.90;99.90;;;;;;5039849;28;20024;-63
2021/06/12 07:25:19;;;;;;;8.63;2.92;;;18.80;99.90;;;;;;5020220;28;20028;-63
2021/06/12 07:27:45;;;;;;;9.65;2.75;;;18.80;99.90;;;;;;5044926;28;20450;-64
2021/06/12 07:30:11;;;;;;;6.55;2.70;;;18.90;99.90;;;;;;5042207;28;20029;-65
2021/06/12 07:32:37;;;;;;;8.60;2.60;;;19.10;99.90;;;;;;5027122;28;20371;-63
2021/06/12 07:35:03;;;;;;;7.68;2.42;;;18.90;99.90;;;;;;5041914;28;20048;-64
2021/06/12 07:37:29;;;;;;;6.88;2.33;;;19.00;99.90;;;;;;5017960;28;20491;-65
2021/06/12 07:39:54;;;;;;;6.78;2.22;;;18.90;99.90;;;;;;5037222;28;20021;-63
2021/06/12 07:42:20;;;;;;;12.88;3.15;;;19.10;99.90;;;;;;5013608;28;20041;-64
2021/06/12 07:44:46;;;;;;;6.38;2.28;;;19.00;99.90;;;;;;5015767;28;20078;-66
2021/06/12 07:47:12;;;;;;;8.23;2.72;;;19.00;99.90;;;;;;5045606;28;20025;-62
2021/06/12 07:49:38;;;;;;;5.70;2.65;;;19.10;99.90;;;;;;5043599;28;20036;-66
2021/06/12 07:52:04;;;;;;;7.55;2.55;;;19.10;99.90;;;;;;5037752;28;20037;-64
2021/06/12 07:54:30;;;;;;;6.32;2.30;;;19.10;99.90;;;;;;5045032;28;20094;-65
2021/06/12 07:56:56;;;;;;;4.72;2.47;;;19.30;99.90;;;;;;5026467;28;20151;-64
2021/06/12 07:59:22;;;;;;;7.97;2.90;;;19.30;99.90;;;;;;5038461;28;20265;-64
2021/06/12 08:01:47;;;;;;;4.82;2.65;;;19.20;99.90;;;;;;5044447;28;20009;-65
2021/06/12 08:04:13;;;;;;;5.40;2.45;;;19.20;99.90;;;;;;5034087;28;20030;-65
2021/06/12 08:06:39;;;;;;;9.15;3.53;;;19.10;99.90;;;;;;5026604;28;20026;-64
2021/06/12 08:09:05;;;;;;;13.20;2.67;;;19.20;99.90;;;;;;5039338;28;20525;-66
2021/06/12 08:11:30;;;;;;;11.57;2.83;;;19.60;99.90;;;;;;5037338;28;20028;-65
2021/06/12 08:13:56;;;;;;;5.93;2.80;;;19.80;99.90;;;;;;5039332;28;20158;-67
2021/06/12 08:16:22;;;;;;;8.80;2.78;;;19.90;99.90;;;;;;5033248;28;20044;-64
2021/06/12 08:18:48;;;;;;;8.07;2.50;;;19.70;99.90;;;;;;5041816;28;20076;-64
2021/06/12 08:21:14;;;;;;;7.95;2.75;;;19.50;99.90;;;;;;5039175;28;20048;-64
2021/06/12 08:23:39;;;;;;;9.20;2.75;;;19.40;99.90;;;;;;5038074;28;20092;-65
2021/06/12 08:26:05;;;;;;;10.82;2.65;;;19.50;99.90;;;;;;5046121;28;20025;-65
2021/06/12 08:28:31;;;;;;;6.30;2.47;;;19.50;99.90;;;;;;5045050;28;20075;-66
2021/06/12 08:30:58;;;;;;;5.72;2.15;;;19.60;99.90;;;;;;5038639;28;20029;-65
2021/06/12 08:33:24;;;;;;;8.07;3.08;;;19.50;99.90;;;;;;5051482;28;20080;-64
2021/06/12 08:35:50;;;;;;;7.32;2.25;;;19.30;99.90;;;;;;5042304;28;20021;-65
2021/06/12 08:38:16;;;;;;;4.45;2.00;;;19.40;99.90;;;;;;5044749;28;20044;-65
2021/06/12 08:40:42;;;;;;;6.00;2.67;;;19.70;99.90;;;;;;5029326;28;20209;-65
2021/06/12 08:43:09;;;;;;;6.93;2.53;;;19.60;99.90;;;;;;5036426;28;20025;-67
2021/06/12 08:45:35;;;;;;;10.32;2.55;;;19.30;99.90;;;;;;5034616;28;20028;-65
2021/06/12 08:48:01;;;;;;;5.22;2.17;;;19.20;99.90;;;;;;5033832;28;20009;-66
2021/06/12 08:50:29;;;;;;;14.05;2.92;;;19.30;99.90;;;;;;5034831;28;20021;-66
2021/06/12 08:52:57;;;;;;;9.50;2.78;;;19.50;99.90;;;;;;5033012;28;20044;-64
2021/06/12 08:55:23;;;;;;;4.13;1.85;;;19.50;99.90;;;;;;5012576;28;20099;-65
2021/06/12 08:57:49;;;;;;;6.78;2.65;;;19.40;99.90;;;;;;5041310;28;20368;-64
2021/06/12 09:00:17;;;;;;;10.77;2.60;;;19.30;99.90;;;;;;5035289;28;20052;-65
2021/06/12 09:03:13;;;;;;;10.30;2.67;;;19.50;99.90;;;;;;5039007;28;20094;-65
2021/06/12 09:05:41;;;;;;;11.05;2.70;;;19.50;99.90;;;;;;5025608;28;20056;-65
2021/06/12 09:08:08;;;;;;;8.18;2.42;;;19.80;99.90;;;;;;5039836;28;20040;-65
2021/06/12 09:10:34;;;;;;;4.35;2.30;;;19.70;99.90;;;;;;5043368;28;20107;-65
2021/06/12 09:13:01;;;;;;;5.18;2.17;;;19.80;99.90;;;;;;5028557;28;20056;-64
2021/06/12 09:15:27;;;;;;;9.95;2.33;;;20.10;99.90;;;;;;5031898;28;20298;-67
2021/06/12 09:17:53;;;;;;;11.57;2.55;;;20.20;99.90;;;;;;5048435;28;20025;-66
2021/06/12 09:20:28;;;;;;;9.15;2.53;;;20.00;99.90;;;;;;5035695;28;20025;-65
2021/06/12 09:23:17;;;;;;;6.30;2.15;;;20.00;99.90;;;;;;5029767;28;20055;-66
2021/06/12 09:25:55;;;;;;;6.63;2.28;;;20.20;99.90;;;;;;5041029;28;20076;-65
2021/06/12 09:28:21;;;;;;;8.32;2.30;;;19.90;99.90;;;;;;5032963;28;20033;-65
2021/06/12 09:30:47;;;;;;;7.53;2.35;;;19.90;99.90;;;;;;5028434;28;20025;-65
2021/06/12 09:33:12;;;;;;;9.98;2.42;;;19.70;99.90;;;;;;5029363;28;20052;-64
2021/06/12 09:35:41;;;;;;;3.83;2.00;;;19.90;99.90;;;;;;5034556;28;20045;-65
2021/06/12 09:38:25;;;;;;;11.05;2.28;;;19.90;99.90;;;;;;5010964;28;20025;-65
2021/06/12 09:40:51;;;;;;;14.95;2.30;;;19.70;99.90;;;;;;5031589;28;20024;-66
2021/06/12 09:43:30;;;;;;;8.10;2.30;;;19.80;99.90;;;;;;5033074;28;20535;-65
2021/06/12 09:45:56;;;;;;;11.70;2.33;;;19.70;99.90;;;;;;5019166;28;20087;-65
2021/06/12 09:48:23;;;;;;;10.57;2.80;;;19.80;99.90;;;;;;5027158;28;20516;-65
2021/06/12 09:51:08;;;;;;;6.47;2.05;;;19.90;99.90;;;;;;5039732;28;20013;-65
2021/06/12 09:53:50;;;;;;;12.40;2.53;;;20.10;99.90;;;;;;5036446;28;20036;-64
2021/06/12 09:56:16;;;;;;;7.78;2.28;;;20.20;99.90;;;;;;5018129;28;20025;-67
2021/06/12 09:58:41;;;;;;;6.97;1.98;;;20.10;99.90;;;;;;5042601;28;20047;-65
2021/06/12 10:01:09;;;;;;;5.93;2.17;;;19.90;99.90;;;;;;5041475;28;20131;-67
2021/06/12 10:03:35;;;;;;;5.55;1.65;;;20.10;99.90;;;;;;5043869;28;20128;-65
2021/06/12 10:06:17;;;;;;;6.78;1.92;;;20.20;99.90;;;;;;5042808;28;20100;-65
2021/06/12 10:08:49;;;;;;;5.85;1.80;;;20.10;99.90;;;;;;5023803;28;20367;-64
2021/06/12 10:11:25;;;;;;;6.53;2.00;;;19.90;99.90;;;;;;5040866;28;20041;-65
2021/06/12 10:13:51;;;;;;;6.90;2.60;;;19.90;99.90;;;;;;5040500;28;20024;-66
2021/06/12 10:16:17;;;;;;;9.45;2.90;;;20.00;99.90;;;;;;5035566;28;20108;-65
2021/06/12 10:18:46;;;;;;;6.68;1.60;;;19.80;99.90;;;;;;5038377;28;20025;-65
2021/06/12 10:21:14;;;;;;;4.65;1.70;;;20.00;99.90;;;;;;5037124;28;20039;-66
2021/06/12 10:23:43;;;;;;;4.47;1.80;;;20.00;99.90;;;;;;5023410;28;20100;-67
2021/06/12 10:26:10;;;;;;;12.30;2.22;;;19.90;99.90;;;;;;5042759;28;20449;-64
2021/06/12 10:28:36;;;;;;;7.93;2.10;;;20.10;99.90;;;;;;5035149;28;20029;-65
2021/06/12 10:31:08;;;;;;;9.05;2.17;;;20.00;99.90;;;;;;5031490;28;20063;-66
2021/06/12 10:33:35;;;;;;;5.45;2.17;;;20.00;99.90;;;;;;5031132;28;20421;-65
2021/06/12 10:36:14;;;;;;;11.38;1.67;;;20.10;99.90;;;;;;5035835;28;20061;-66
2021/06/12 10:38:40;;;;;;;3.70;1.92;;;20.20;99.90;;;;;;5034623;28;20205;-66
2021/06/12 10:41:28;;;;;;;5.05;1.90;;;20.40;99.90;;;;;;5040203;28;20440;-65
2021/06/12 10:43:57;;;;;;;4.85;1.70;;;20.00;99.90;;;;;;5034973;28;20104;-65
2021/06/12 10:46:28;;;;;;;7.07;2.40;;;19.80;99.90;;;;;;5024815;28;20220;-65
2021/06/12 10:49:00;;;;;;;7.78;3.13;;;19.70;99.90;;;;;;5033744;28;20367;-65
2021/06/12 10:51:25;;;;;;;5.28;1.98;;;19.70;99.90;;;;;;5043417;28;20044;-66
2021/06/12 10:54:18;;;;;;;6.45;2.15;;;19.70;99.90;;;;;;5048061;28;20025;-65
2021/06/12 10:57:02;;;;;;;8.32;2.47;;;19.80;99.90;;;;;;5037207;28;20036;-66
2021/06/12 10:59:48;;;;;;;7.25;2.03;;;19.60;99.90;;;;;;5017781;28;20029;-67
2021/06/12 11:02:22;;;;;;;9.07;2.70;;;19.80;99.90;;;;;;5045527;28;20017;-66
2021/06/12 11:05:00;;;;;;;7.35;1.90;;;19.80;99.90;;;;;;5035614;28;20025;-66
2021/06/12 11:07:34;;;;;;;11.43;2.53;;;20.00;99.90;;;;;;5046920;28;20017;-66
2021/06/12 11:10:11;;;;;;;5.82;1.80;;;20.10;99.90;;;;;;5038464;22;20432;-65
2021/06/12 11:12:48;;;;;;;7.22;1.88;;;20.20;99.90;;;;;;5004374;28;20034;-64
2021/06/12 11:15:34;;;;;;;8.02;2.15;;;20.60;99.90;;;;;;5014995;28;20029;-65
2021/06/12 11:18:21;;;;;;;7.03;2.35;;;20.80;99.90;;;;;;5009440;28;20452;-65
2021/06/12 11:21:07;;;;;;;8.70;2.63;;;20.90;99.90;;;;;;5000739;28;20226;-64
2021/06/12 11:23:48;;;;;;;5.60;2.00;;;20.70;99.90;;;;;;5008902;28;20129;-66
2021/06/12 11:26:15;;;;;;;7.13;1.85;;;20.60;99.90;;;;;;5009805;28;20105;-63
2021/06/12 11:28:42;;;;;;;7.47;1.83;;;21.00;99.30;;;;;;5009147;28;20026;-64
2021/06/12 11:31:27;;;;;;;6.57;2.10;;;20.70;97.90;;;;;;5008763;28;20030;-65
2021/06/12 11:34:11;;;;;;;4.90;2.15;;;20.40;99.70;;;;;;5007792;28;20037;-66
2021/06/12 11:36:37;;;;;;;6.30;1.73;;;20.90;99.10;;;;;;5009362;28;20053;-66
2021/06/12 11:39:03;;;;;;;3.58;1.38;;;21.10;98.50;;;;;;5026698;28;20022;-64
2021/06/12 11:41:28;;;;;;;4.65;1.48;;;21.20;98.00;;;;;;5015225;28;20453;-67
2021/06/12 11:43:56;;;;;;;7.65;2.03;;;21.10;97.90;;;;;;4997301;28;20035;-65
2021/06/12 11:46:25;;;;;;;4.43;1.55;;;21.00;98.40;;;;;;5014142;28;20029;-65
2021/06/12 11:48:52;;;;;;;6.68;1.77;;;21.10;98.20;;;;;;5015764;28;20093;-63
2021/06/12 11:51:33;;;;;;;9.05;1.90;;;21.00;97.80;;;;;;4997391;28;20022;-64
2021/06/12 11:54:15;;;;;;;6.70;1.73;;;21.00;98.30;;;;;;5006893;28;20046;-66
2021/06/12 11:56:43;;;;;;;;;;;21.10;97.50;;;;;;5006597;28;20079;-65
2021/06/12 11:59:10;;;;;;;9.52;1.73;;;21.10;97.30;;;;;;4996267;28;19996;-65
2021/06/12 12:01:39;;;;;;;5.13;1.80;;;21.00;97.80;;;;;;5001576;28;20026;-67
2021/06/12 12:04:10;;;;;;;6.03;1.83;;;21.10;97.80;;;;;;4997287;28;20033;-63
2021/06/12 12:06:36;;;;;;;4.53;2.03;;;21.50;97.80;;;;;;5007293;28;20056;-65
2021/06/12 12:09:04;;;;;;;5.72;2.13;;;21.40;96.00;;;;;;5000440;28;20044;-64
2021/06/12 12:11:30;;;;;;;6.40;1.48;;;21.50;96.80;;;;;;5004430;28;20531;-67
2021/06/12 12:14:04;;;;;;;4.65;1.80;;;21.70;96.20;;;;;;5009453;28;20105;-65
2021/06/12 12:16:29;;;;;;;4.38;1.80;;;22.00;96.20;;;;;;5007878;28;20342;-65
2021/06/12 12:18:58;;;;;;;11.02;2.05;;;21.80;95.80;;;;;;4995609;28;20491;-64
2021/06/12 12:21:41;;;;;;;7.70;2.10;;;20.60;97.90;;;;;;5016735;28;20109;-64
2021/06/12 12:24:10;;;;;;;4.13;1.60;;;20.50;97.90;;;;;;5003346;28;20030;-63
2021/06/12 12:26:37;;;;;;;5.47;1.80;;;20.80;97.40;;;;;;4997368;28;20027;-65
2021/06/12 12:29:06;;;;;;;5.47;1.80;;;21.00;98.10;;;;;;5005229;28;20658;-64
2021/06/12 12:31:33;;;;;;;7.22;2.05;;;21.50;97.30;;;;;;4995055;28;20036;-65
2021/06/12 12:34:01;;;;;;;7.13;2.30;;;21.90;96.30;;;;;;4996870;28;20018;-65
2021/06/12 12:36:27;;;;;;;9.52;2.10;;;21.80;96.10;;;;;;5009114;28;20116;-62
2021/06/12 12:38:56;;;;;;;4.55;1.67;;;21.90;97.00;;;;;;5011482;28;20487;-63
2021/06/12 12:41:21;;;;;;;6.20;2.10;;;22.00;96.20;;;;;;5008586;28;20438;-66
2021/06/12 12:43:48;;;;;;;7.60;2.10;;;22.10;96.80;;;;;;5006259;28;20026;-64
2021/06/12 12:46:13;;;;;;;2.72;1.38;;;22.10;96.30;;;;;;5005576;28;20014;-62
2021/06/12 12:48:41;;;;;;;14.85;2.90;;;22.50;95.90;;;;;;4995297;28;20491;-66